Corguinho, Brazil
Current Conditions -  °F | °C
As of 2:35 AM on Monday 22 Dec 2014 (Local Time) from SBCG Reporting Station
Light Rain Light Rain  
Wind Chill: 70°   Ceiling: 200
Heat Index: 70°   Visibility: 6mi
Dew Point: 70°   Wind: 20mph
Humidity: 100%   Direction: 350°N
Pressure: 29.85"   Gusts: NA
Location:  19.83°S, 54.83°W
Report Text: SBCG 220535Z 35017KT 9999 -RA BKN002 SCT010 FEW040TCU 21/21 Q1011
Loading
Personal Weather Stations






























Interactive Weather Map New forecast layout! Learn more

10-Day Weather Forecast

Advertisements
Track Severe Weather on mobile